createdAt,value
2018-07-13T00:00:45.753Z,16.04
2018-07-13T00:02:58.118Z,15.99
2018-07-13T00:05:10.573Z,15.95
2018-07-13T00:07:23.014Z,16.00
2018-07-13T00:09:35.372Z,15.99
2018-07-13T00:11:47.734Z,16.01
2018-07-13T00:14:19.741Z,16.03
2018-07-13T00:16:32.095Z,16.03
2018-07-13T00:18:44.451Z,15.91
2018-07-13T00:20:57.074Z,15.80
2018-07-13T00:23:09.519Z,15.69
2018-07-13T00:25:21.948Z,15.67
2018-07-13T00:27:34.591Z,15.68
2018-07-13T00:29:46.933Z,15.71
2018-07-13T00:31:59.290Z,15.72
2018-07-13T00:34:11.706Z,15.72
2018-07-13T00:36:24.245Z,15.76
2018-07-13T00:38:36.574Z,15.80
2018-07-13T00:40:48.958Z,15.85
2018-07-13T00:43:01.367Z,15.86
2018-07-13T00:45:13.733Z,15.90
2018-07-13T00:47:26.459Z,15.92
2018-07-13T00:49:38.812Z,15.93
2018-07-13T00:51:51.262Z,15.95
2018-07-13T00:54:03.633Z,15.95
2018-07-13T00:56:15.967Z,15.96
2018-07-13T00:58:28.434Z,15.98
2018-07-13T01:00:40.863Z,16.02
2018-07-13T01:02:53.232Z,15.93
2018-07-13T01:05:05.779Z,15.90
2018-07-13T01:07:18.282Z,15.89
2018-07-13T01:09:30.806Z,15.84
2018-07-13T01:11:43.134Z,15.82
2018-07-13T01:13:55.589Z,15.84
2018-07-13T01:16:08.003Z,15.85
2018-07-13T01:18:20.442Z,15.78
2018-07-13T01:20:32.936Z,15.66
2018-07-13T01:22:45.354Z,15.53
2018-07-13T01:24:57.761Z,15.41
2018-07-13T01:27:10.099Z,15.31
2018-07-13T01:29:22.707Z,15.26
2018-07-13T01:31:35.043Z,15.12
2018-07-13T01:33:47.569Z,15.08
2018-07-13T01:36:00.003Z,15.09
2018-07-13T01:38:12.382Z,15.15
2018-07-13T01:40:24.888Z,15.19
2018-07-13T01:42:37.342Z,15.24
2018-07-13T01:44:49.694Z,15.26
2018-07-13T01:47:02.074Z,15.28
2018-07-13T01:49:14.403Z,15.30
2018-07-13T01:51:26.811Z,15.31
2018-07-13T01:53:39.306Z,15.36
2018-07-13T01:55:51.762Z,15.31
2018-07-13T01:58:04.246Z,15.22
2018-07-13T02:00:16.622Z,15.24
2018-07-13T02:02:29.070Z,15.17
2018-07-13T02:04:41.623Z,15.18
2018-07-13T02:06:54.039Z,15.21
2018-07-13T02:09:07.715Z,15.23
2018-07-13T02:11:20.150Z,15.17
2018-07-13T02:13:32.589Z,15.19
2018-07-13T02:15:44.894Z,15.24
2018-07-13T02:17:57.342Z,15.26
2018-07-13T02:20:09.702Z,15.27
2018-07-13T02:22:22.281Z,15.28
2018-07-13T02:24:34.754Z,15.28
2018-07-13T02:26:47.205Z,15.26
2018-07-13T02:28:59.595Z,15.26
2018-07-13T02:31:11.934Z,15.28
2018-07-13T02:33:24.302Z,15.30
2018-07-13T02:35:36.904Z,15.29
2018-07-13T02:37:49.398Z,15.29
2018-07-13T02:40:01.754Z,15.28
2018-07-13T02:42:14.062Z,15.22
2018-07-13T02:44:26.558Z,15.18
2018-07-13T02:46:38.914Z,15.21
2018-07-13T02:48:51.385Z,15.21
2018-07-13T02:51:03.755Z,15.21
2018-07-13T02:53:16.090Z,15.21
2018-07-13T02:55:28.522Z,15.13
2018-07-13T02:57:40.970Z,15.11
2018-07-13T02:59:53.295Z,15.13
2018-07-13T03:02:06.071Z,15.14
2018-07-13T03:04:18.441Z,15.09
2018-07-13T03:06:30.975Z,15.09
2018-07-13T03:08:43.395Z,15.09
2018-07-13T03:10:55.733Z,15.08
2018-07-13T03:13:08.132Z,14.94
2018-07-13T03:15:20.550Z,14.77
2018-07-13T03:17:33.010Z,14.71
2018-07-13T03:19:45.446Z,14.72
2018-07-13T03:21:57.847Z,14.69
2018-07-13T03:24:10.282Z,14.74
2018-07-13T03:26:22.751Z,14.81
2018-07-13T03:28:35.122Z,14.84
2018-07-13T03:30:47.628Z,14.82
2018-07-13T03:33:00.031Z,14.82
2018-07-13T03:35:12.428Z,14.79
2018-07-13T03:37:24.814Z,14.79
2018-07-13T03:39:37.290Z,14.78
2018-07-13T03:41:49.657Z,14.79
2018-07-13T03:44:02.273Z,14.80
2018-07-13T03:46:14.574Z,14.75
2018-07-13T03:48:27.053Z,14.69
2018-07-13T03:50:39.442Z,14.58
2018-07-13T03:52:51.907Z,14.49
2018-07-13T03:55:04.353Z,14.49
2018-07-13T03:57:16.804Z,14.42
2018-07-13T03:59:29.438Z,14.36
2018-07-13T04:01:42.087Z,14.31
2018-07-13T04:03:54.651Z,14.26
2018-07-13T04:06:07.322Z,14.34
2018-07-13T04:08:19.688Z,14.42
2018-07-13T04:10:32.021Z,14.47
2018-07-13T04:12:44.526Z,14.56
2018-07-13T04:14:56.952Z,14.60
2018-07-13T04:17:09.311Z,14.60
2018-07-13T04:19:21.832Z,14.61
2018-07-13T04:21:34.245Z,14.66
2018-07-13T04:23:46.693Z,14.67
2018-07-13T04:25:59.134Z,14.65
2018-07-13T04:28:11.610Z,14.66
2018-07-13T04:30:24.006Z,14.71
2018-07-13T04:32:36.403Z,14.80
2018-07-13T04:34:48.834Z,14.95
2018-07-13T04:37:01.335Z,15.06
2018-07-13T04:39:13.762Z,15.20
2018-07-13T04:41:26.211Z,15.34
2018-07-13T04:43:38.587Z,15.45
2018-07-13T04:45:50.973Z,15.57
2018-07-13T04:48:03.605Z,15.62
2018-07-13T04:50:16.110Z,15.70
2018-07-13T04:52:28.480Z,15.82
2018-07-13T04:54:41.125Z,15.95
2018-07-13T04:56:53.530Z,16.07
2018-07-13T04:59:05.926Z,16.18
2018-07-13T05:01:18.378Z,16.24
2018-07-13T05:03:30.881Z,16.29
2018-07-13T05:05:43.322Z,16.31
2018-07-13T05:07:55.794Z,16.40
2018-07-13T05:10:08.256Z,16.44
2018-07-13T05:12:20.694Z,16.45
2018-07-13T05:14:33.130Z,16.56
2018-07-13T05:16:45.554Z,16.67
2018-07-13T05:18:57.963Z,16.83
2018-07-13T05:21:10.477Z,16.96
2018-07-13T05:23:22.921Z,17.11
2018-07-13T05:25:35.606Z,17.22
2018-07-13T05:27:48.031Z,17.35
2018-07-13T05:30:01.111Z,17.47
2018-07-13T05:32:13.553Z,17.60
2018-07-13T05:34:26.023Z,17.71
2018-07-13T05:36:38.792Z,17.83
2018-07-13T05:38:51.491Z,18.06
2018-07-13T05:41:03.935Z,18.47
2018-07-13T05:43:16.653Z,18.68
2018-07-13T05:45:29.315Z,18.71
2018-07-13T05:47:41.755Z,18.72
2018-07-13T05:49:54.230Z,18.67
2018-07-13T05:52:06.606Z,18.69
2018-07-13T05:54:19.022Z,18.74
2018-07-13T05:56:31.599Z,18.83
2018-07-13T05:58:44.030Z,18.89
2018-07-13T06:00:56.460Z,18.91
2018-07-13T06:03:08.894Z,19.03
2018-07-13T06:05:21.347Z,19.23
2018-07-13T06:07:33.763Z,19.41
2018-07-13T06:09:46.264Z,19.55
2018-07-13T06:11:58.927Z,19.70
2018-07-13T06:14:11.494Z,19.85
2018-07-13T06:16:23.955Z,20.07
2018-07-13T06:18:36.363Z,20.34
2018-07-13T06:20:48.831Z,20.58
2018-07-13T06:23:01.198Z,20.73
2018-07-13T06:25:13.770Z,20.78
2018-07-13T06:27:26.167Z,20.79
2018-07-13T06:29:38.518Z,20.93
2018-07-13T06:31:50.964Z,21.08
2018-07-13T06:34:03.586Z,21.21
2018-07-13T06:36:15.967Z,21.34
2018-07-13T06:38:28.370Z,21.38
2018-07-13T06:40:40.799Z,21.55
2018-07-13T06:42:53.256Z,21.80
2018-07-13T06:45:05.702Z,22.06
2018-07-13T06:47:18.122Z,22.22
2018-07-13T06:49:30.496Z,22.38
2018-07-13T06:51:42.946Z,22.58
2018-07-13T06:53:55.454Z,22.82
2018-07-13T06:56:07.886Z,23.01
2018-07-13T06:58:31.605Z,23.31
2018-07-13T07:00:54.123Z,23.58
2018-07-13T07:03:06.490Z,23.86
2018-07-13T07:06:22.513Z,24.21
2018-07-13T07:08:36.022Z,24.45
2018-07-13T07:10:48.449Z,24.64
2018-07-13T07:13:38.415Z,24.77
2018-07-13T07:15:50.820Z,24.96
2018-07-13T07:18:03.319Z,25.09
2018-07-13T07:20:16.030Z,25.18
2018-07-13T07:22:28.498Z,25.30
2018-07-13T07:24:40.862Z,25.45
2018-07-13T07:26:53.223Z,25.60
2018-07-13T07:29:05.751Z,25.81
2018-07-13T07:31:18.246Z,25.97
2018-07-13T07:33:30.662Z,25.85
2018-07-13T07:35:43.093Z,25.87
2018-07-13T07:37:55.440Z,26.23
2018-07-13T07:40:08.033Z,26.60
2018-07-13T07:42:20.462Z,26.67
2018-07-13T07:44:32.820Z,26.89
2018-07-13T07:46:45.331Z,27.09
2018-07-13T07:48:57.802Z,27.30
2018-07-13T07:51:10.190Z,27.45
2018-07-13T07:53:22.769Z,27.59
2018-07-13T07:55:35.331Z,27.62
2018-07-13T07:57:47.769Z,27.45
2018-07-13T08:00:00.250Z,27.40
2018-07-13T08:02:12.795Z,27.71
2018-07-13T08:04:25.299Z,28.04
2018-07-13T08:06:37.737Z,28.28
2018-07-13T08:08:50.152Z,28.29
2018-07-13T08:11:02.516Z,28.26
2018-07-13T08:13:14.946Z,28.12
2018-07-13T08:15:27.464Z,28.28
2018-07-13T08:17:39.982Z,28.51
2018-07-13T08:19:52.536Z,28.67
2018-07-13T08:22:14.049Z,28.79
2018-07-13T08:24:26.524Z,28.76
2018-07-13T08:26:39.765Z,28.76
2018-07-13T08:28:52.231Z,28.73
2018-07-13T08:31:04.689Z,28.71
2018-07-13T08:33:17.052Z,28.69
2018-07-13T08:35:30.142Z,28.68
2018-07-13T08:37:42.667Z,28.74
2018-07-13T08:39:55.082Z,28.62
2018-07-13T08:42:07.743Z,28.74
2018-07-13T08:44:20.382Z,28.80
2018-07-13T08:46:32.826Z,28.77
2018-07-13T08:48:45.239Z,28.81
2018-07-13T08:50:57.657Z,28.81
2018-07-13T08:53:10.092Z,28.88
2018-07-13T08:55:22.598Z,29.02
2018-07-13T08:57:35.026Z,29.05
2018-07-13T08:59:47.667Z,29.02
2018-07-13T09:02:00.067Z,28.94
2018-07-13T09:04:12.494Z,28.92
2018-07-13T09:06:24.989Z,28.87
2018-07-13T09:08:37.387Z,28.86
2018-07-13T09:10:49.835Z,28.95
2018-07-13T09:13:02.294Z,28.97
2018-07-13T09:15:14.645Z,28.96
2018-07-13T09:17:27.162Z,29.09
2018-07-13T09:19:39.549Z,29.09
2018-07-13T09:21:51.998Z,29.16
2018-07-13T09:24:04.413Z,29.13
2018-07-13T09:26:16.844Z,29.09
2018-07-13T09:28:29.289Z,29.17
2018-07-13T09:30:41.879Z,29.38
2018-07-13T09:32:54.599Z,29.51
2018-07-13T09:35:07.067Z,29.66
2018-07-13T09:37:19.729Z,29.71
2018-07-13T09:39:32.186Z,29.68
2018-07-13T09:41:44.737Z,29.67
2018-07-13T09:43:57.137Z,29.70
2018-07-13T09:46:09.527Z,29.54
2018-07-13T09:48:22.075Z,29.68
2018-07-13T09:50:34.487Z,29.76
2018-07-13T09:52:46.861Z,29.98
2018-07-13T09:54:59.252Z,30.09
2018-07-13T09:57:11.742Z,30.25
2018-07-13T09:59:24.323Z,30.39
2018-07-13T10:01:36.766Z,30.27
2018-07-13T10:03:49.287Z,30.14
2018-07-13T10:06:01.924Z,30.15
2018-07-13T10:08:14.317Z,30.21
2018-07-13T10:10:26.833Z,30.30
2018-07-13T10:12:39.276Z,30.35
2018-07-13T10:14:51.662Z,30.24
2018-07-13T10:17:04.438Z,30.10
2018-07-13T10:19:16.827Z,30.14
2018-07-13T10:21:29.460Z,30.21
2018-07-13T10:23:43.074Z,30.48
2018-07-13T10:25:59.394Z,30.70
2018-07-13T10:28:12.118Z,30.87
2018-07-13T10:30:24.635Z,30.83
2018-07-13T10:32:37.096Z,30.74
2018-07-13T10:34:50.710Z,30.52
2018-07-13T10:37:04.185Z,30.46
2018-07-13T10:39:16.631Z,30.16
2018-07-13T10:41:29.142Z,29.96
2018-07-13T10:43:41.824Z,30.01
2018-07-13T10:45:54.264Z,30.05
2018-07-13T10:48:06.844Z,30.14
2018-07-13T10:50:19.199Z,30.10
2018-07-13T10:52:31.659Z,30.20
2018-07-13T10:54:44.060Z,30.16
2018-07-13T10:56:56.435Z,30.12
2018-07-13T10:59:08.826Z,30.37
2018-07-13T11:01:21.202Z,30.54
2018-07-13T11:03:33.597Z,30.74
2018-07-13T11:05:46.042Z,30.65
2018-07-13T11:07:58.500Z,30.57
2018-07-13T11:10:10.908Z,30.54
2018-07-13T11:12:23.248Z,30.56
2018-07-13T11:14:35.597Z,30.58
2018-07-13T11:16:47.922Z,30.69
2018-07-13T11:19:00.343Z,30.38
2018-07-13T11:21:12.865Z,29.73
2018-07-13T11:23:25.315Z,29.12
2018-07-13T11:25:37.718Z,28.83
2018-07-13T11:27:50.066Z,28.79
2018-07-13T11:30:02.548Z,28.85
2018-07-13T11:32:14.987Z,28.93
2018-07-13T11:34:27.348Z,28.95
2018-07-13T11:36:40.089Z,28.84
2018-07-13T11:38:52.536Z,29.08
2018-07-13T11:41:05.050Z,29.42
2018-07-13T11:43:17.489Z,29.56
2018-07-13T11:45:30.819Z,29.75
2018-07-13T11:47:43.217Z,29.86
2018-07-13T11:49:55.774Z,29.94
2018-07-13T11:52:08.208Z,30.01
2018-07-13T11:54:20.565Z,29.92
2018-07-13T11:56:32.946Z,29.67
2018-07-13T11:58:45.313Z,29.42
2018-07-13T12:00:57.867Z,29.07
2018-07-13T12:03:10.275Z,28.85
2018-07-13T12:05:22.720Z,28.69
2018-07-13T12:07:35.228Z,28.76
2018-07-13T12:09:47.619Z,28.99
2018-07-13T12:12:00.041Z,29.30
2018-07-13T12:14:12.521Z,29.56
2018-07-13T12:16:27.943Z,29.74
2018-07-13T12:18:40.347Z,29.80
2018-07-13T12:20:52.806Z,29.86
2018-07-13T12:23:05.506Z,29.84
2018-07-13T12:25:18.025Z,29.68
2018-07-13T12:27:30.390Z,29.40
2018-07-13T12:29:42.902Z,29.02
2018-07-13T12:31:55.386Z,28.63
2018-07-13T12:34:07.830Z,28.34
2018-07-13T12:36:20.232Z,28.39
2018-07-13T12:38:32.625Z,28.59
2018-07-13T12:40:45.025Z,28.68
2018-07-13T12:42:57.475Z,28.74
2018-07-13T12:45:09.874Z,28.70
2018-07-13T12:47:22.265Z,28.60
2018-07-13T12:49:34.770Z,28.49
2018-07-13T12:51:47.234Z,28.35
2018-07-13T12:53:59.742Z,28.39
2018-07-13T12:56:12.158Z,28.52
2018-07-13T12:58:24.573Z,28.75
2018-07-13T13:00:37.021Z,28.85
2018-07-13T13:02:49.410Z,28.95
2018-07-13T13:05:01.818Z,28.82
2018-07-13T13:07:14.590Z,28.73
2018-07-13T13:09:27.102Z,28.76
2018-07-13T13:11:39.539Z,28.85
2018-07-13T13:13:51.933Z,29.01
2018-07-13T13:16:04.630Z,29.19
2018-07-13T13:18:17.061Z,29.32
2018-07-13T13:20:29.528Z,29.43
2018-07-13T13:22:41.937Z,29.48
2018-07-13T13:24:54.263Z,29.51
2018-07-13T13:27:06.768Z,29.38
2018-07-13T13:29:19.360Z,29.38
2018-07-13T13:31:31.672Z,29.43
2018-07-13T13:33:44.011Z,29.45
2018-07-13T13:35:56.551Z,29.46
2018-07-13T13:38:08.942Z,29.58
2018-07-13T13:40:21.386Z,29.55
2018-07-13T13:42:33.777Z,29.57
2018-07-13T13:44:46.751Z,29.56
2018-07-13T13:46:59.279Z,29.53
2018-07-13T13:49:11.751Z,29.54
2018-07-13T13:51:24.180Z,29.61
2018-07-13T13:53:36.583Z,29.63
2018-07-13T13:55:48.953Z,29.64
2018-07-13T13:58:01.528Z,29.51
2018-07-13T14:00:14.860Z,29.40
2018-07-13T14:02:27.290Z,29.37
2018-07-13T14:04:39.751Z,29.33
2018-07-13T14:06:52.125Z,29.23
2018-07-13T14:09:05.798Z,29.24
2018-07-13T14:11:18.107Z,29.34
2018-07-13T14:13:31.127Z,29.34
2018-07-13T14:15:43.572Z,29.41
2018-07-13T14:17:56.042Z,29.43
2018-07-13T14:20:08.628Z,29.35
2018-07-13T14:22:20.951Z,29.33
2018-07-13T14:24:33.274Z,29.37
2018-07-13T14:26:46.831Z,29.30
2018-07-13T14:28:59.397Z,29.28
2018-07-13T14:31:12.004Z,29.29
2018-07-13T14:33:24.551Z,29.35
2018-07-13T14:35:36.975Z,29.34
2018-07-13T14:37:49.602Z,29.20
2018-07-13T14:40:03.042Z,29.09
2018-07-13T14:42:15.451Z,29.12
2018-07-13T14:44:27.906Z,29.16
2018-07-13T14:46:40.273Z,29.19
2018-07-13T14:48:52.982Z,29.23
2018-07-13T14:51:05.412Z,29.29
2018-07-13T14:53:18.881Z,29.25
2018-07-13T14:55:31.206Z,29.21
2018-07-13T14:57:43.757Z,29.22
2018-07-13T14:59:56.318Z,29.18
2018-07-13T15:02:08.758Z,29.17
2018-07-13T15:04:21.143Z,29.21
2018-07-13T15:06:33.670Z,29.25
2018-07-13T15:08:45.927Z,29.30
2018-07-13T15:10:58.292Z,29.33
2018-07-13T15:13:10.785Z,29.31
2018-07-13T15:15:23.171Z,29.29
2018-07-13T15:17:35.722Z,29.24
2018-07-13T15:19:48.623Z,29.24
2018-07-13T15:22:01.014Z,29.22
2018-07-13T15:24:13.505Z,29.16
2018-07-13T15:26:26.053Z,29.19
2018-07-13T15:28:38.498Z,29.16
2018-07-13T15:30:50.935Z,29.03
2018-07-13T15:33:03.394Z,28.99
2018-07-13T15:35:15.889Z,28.99
2018-07-13T15:37:28.356Z,29.01
2018-07-13T15:39:40.694Z,29.04
2018-07-13T15:41:53.062Z,29.04
2018-07-13T15:44:05.446Z,28.97
2018-07-13T15:46:17.911Z,28.90
2018-07-13T15:48:30.254Z,28.85
2018-07-13T15:50:42.653Z,28.86
2018-07-13T15:52:55.067Z,28.85
2018-07-13T15:55:07.482Z,28.85
2018-07-13T15:57:20.173Z,28.90
2018-07-13T15:59:32.538Z,28.91
2018-07-13T16:01:44.958Z,28.87
2018-07-13T16:03:57.438Z,28.83
2018-07-13T16:06:09.782Z,28.77
2018-07-13T16:08:22.263Z,28.70
2018-07-13T16:10:34.622Z,28.57
2018-07-13T16:12:47.014Z,28.55
2018-07-13T16:14:59.521Z,28.56
2018-07-13T16:17:11.979Z,28.58
2018-07-13T16:19:24.318Z,28.60
2018-07-13T16:21:36.779Z,28.54
2018-07-13T16:23:49.179Z,28.57
2018-07-13T16:26:01.518Z,28.56
2018-07-13T16:28:14.035Z,28.53
2018-07-13T16:30:26.517Z,28.55
2018-07-13T16:32:39.062Z,28.54
2018-07-13T16:34:51.526Z,28.52
2018-07-13T16:37:04.027Z,28.50
2018-07-13T16:39:16.402Z,28.53
2018-07-13T16:41:28.799Z,28.54
2018-07-13T16:43:41.239Z,28.56
2018-07-13T16:45:53.631Z,28.60
2018-07-13T16:48:06.016Z,28.59
2018-07-13T16:50:18.423Z,28.61
2018-07-13T16:52:30.851Z,28.62
2018-07-13T16:54:43.292Z,28.56
2018-07-13T16:56:55.737Z,28.51
2018-07-13T16:59:08.263Z,28.46
2018-07-13T17:01:20.611Z,28.40
2018-07-13T17:03:33.081Z,28.38
2018-07-13T17:05:45.509Z,28.35
2018-07-13T17:07:57.962Z,28.33
2018-07-13T17:10:10.388Z,28.27
2018-07-13T17:12:22.874Z,28.28
2018-07-13T17:14:35.461Z,28.32
2018-07-13T17:16:47.883Z,28.26
2018-07-13T17:19:00.263Z,28.24
2018-07-13T17:21:12.709Z,28.11
2018-07-13T17:23:25.234Z,28.11
2018-07-13T17:25:37.910Z,28.08
2018-07-13T17:27:50.252Z,28.08
2018-07-13T17:30:02.807Z,28.00
2018-07-13T17:32:15.201Z,27.97
2018-07-13T17:34:27.650Z,27.99
2018-07-13T17:36:40.139Z,27.99
2018-07-13T17:38:52.637Z,27.98
2018-07-13T17:41:05.174Z,27.86
2018-07-13T17:43:17.518Z,27.80
2018-07-13T17:45:29.899Z,27.78
2018-07-13T17:47:42.358Z,27.76
2018-07-13T17:49:54.678Z,27.73
2018-07-13T17:52:07.174Z,27.68
2018-07-13T17:54:19.590Z,27.66
2018-07-13T17:56:31.942Z,27.64
2018-07-13T17:58:44.566Z,27.62
2018-07-13T18:00:57.047Z,27.61
2018-07-13T18:03:09.511Z,27.59
2018-07-13T18:05:21.906Z,27.57
2018-07-13T18:07:34.307Z,27.55
2018-07-13T18:09:46.773Z,27.49
2018-07-13T18:11:59.146Z,27.44
2018-07-13T18:14:11.618Z,27.35
2018-07-13T18:16:23.983Z,27.29
2018-07-13T18:18:36.379Z,27.25
2018-07-13T18:20:48.771Z,27.21
2018-07-13T18:23:01.255Z,27.14
2018-07-13T18:25:13.574Z,27.12
2018-07-13T18:27:25.971Z,27.10
2018-07-13T18:29:38.528Z,27.12
2018-07-13T18:31:51.113Z,27.06
2018-07-13T18:34:03.559Z,27.00
2018-07-13T18:36:15.954Z,26.96
2018-07-13T18:38:28.366Z,26.91
2018-07-13T18:40:40.799Z,26.87
2018-07-13T18:42:53.154Z,26.79
2018-07-13T18:45:05.608Z,26.72
2018-07-13T18:47:17.973Z,26.72
2018-07-13T18:49:30.344Z,26.69
2018-07-13T18:51:42.742Z,26.65
2018-07-13T18:53:55.259Z,26.65
2018-07-13T18:56:07.925Z,26.62
2018-07-13T18:58:21.166Z,26.57
2018-07-13T19:00:33.595Z,26.50
2018-07-13T19:02:46.140Z,26.42
2018-07-13T19:04:58.527Z,26.30
2018-07-13T19:07:11.259Z,26.15
2018-07-13T19:09:23.603Z,25.96
2018-07-13T19:11:36.060Z,25.60
2018-07-13T19:13:48.515Z,25.41
2018-07-13T19:16:00.976Z,25.32
2018-07-13T19:18:13.378Z,25.30
2018-07-13T19:20:25.835Z,25.04
2018-07-13T19:22:38.328Z,24.71
2018-07-13T19:24:50.715Z,24.41
2018-07-13T19:27:03.207Z,24.23
2018-07-13T19:29:15.683Z,24.07
2018-07-13T19:31:28.050Z,23.97
2018-07-13T19:33:40.434Z,23.97
2018-07-13T19:35:52.876Z,23.90
2018-07-13T19:38:05.338Z,23.91
2018-07-13T19:40:17.781Z,23.77
2018-07-13T19:42:30.212Z,23.69
2018-07-13T19:44:42.658Z,23.61
2018-07-13T19:46:55.072Z,23.58
2018-07-13T19:49:07.440Z,23.53
2018-07-13T19:51:19.833Z,23.46
2018-07-13T19:53:32.282Z,23.37
2018-07-13T19:55:44.650Z,23.35
2018-07-13T19:57:57.287Z,23.31
2018-07-13T20:00:09.627Z,23.32
2018-07-13T20:02:22.019Z,23.30
2018-07-13T20:04:34.733Z,23.22
2018-07-13T20:06:47.194Z,23.20
2018-07-13T20:08:59.594Z,23.16
2018-07-13T20:11:11.973Z,23.06
2018-07-13T20:13:24.419Z,23.00
2018-07-13T20:15:36.755Z,22.94
2018-07-13T20:17:49.131Z,22.81
2018-07-13T20:20:01.524Z,22.67
2018-07-13T20:22:13.903Z,22.55
2018-07-13T20:24:26.300Z,22.47
2018-07-13T20:26:38.719Z,22.36
2018-07-13T20:28:51.130Z,22.25
2018-07-13T20:31:03.588Z,22.22
2018-07-13T20:33:16.030Z,22.21
2018-07-13T20:35:28.487Z,22.17
2018-07-13T20:37:40.878Z,21.99
2018-07-13T20:39:53.262Z,21.87
2018-07-13T20:42:06.004Z,21.81
2018-07-13T20:44:18.425Z,21.85
2018-07-13T20:46:30.967Z,21.84
2018-07-13T20:48:44.036Z,21.81
2018-07-13T20:50:56.550Z,21.76
2018-07-13T20:53:09.219Z,21.74
2018-07-13T20:55:21.594Z,21.79
2018-07-13T20:57:33.972Z,21.88
2018-07-13T20:59:46.428Z,21.86
2018-07-13T21:01:58.970Z,21.87
2018-07-13T21:04:11.415Z,21.85
2018-07-13T21:06:23.911Z,21.87
2018-07-13T21:08:36.382Z,21.82
2018-07-13T21:10:48.746Z,21.80
2018-07-13T21:13:01.190Z,21.79
2018-07-13T21:15:13.639Z,21.65
2018-07-13T21:17:26.062Z,21.62
2018-07-13T21:19:38.524Z,21.63
2018-07-13T21:21:50.837Z,21.48
2018-07-13T21:24:03.255Z,21.44
2018-07-13T21:26:15.727Z,21.38
2018-07-13T21:28:28.168Z,21.34
2018-07-13T21:30:40.647Z,21.27
2018-07-13T21:32:53.214Z,21.22
2018-07-13T21:35:05.796Z,21.32
2018-07-13T21:37:18.187Z,21.45
2018-07-13T21:39:30.555Z,21.59
2018-07-13T21:41:42.989Z,21.57
2018-07-13T21:43:55.353Z,21.65
2018-07-13T21:46:07.725Z,21.67
2018-07-13T21:48:20.318Z,21.59
2018-07-13T21:50:32.769Z,21.45
2018-07-13T21:52:45.180Z,21.31
2018-07-13T21:54:57.626Z,21.26
2018-07-13T21:57:09.993Z,21.21
2018-07-13T21:59:22.663Z,21.20
2018-07-13T22:01:35.518Z,21.20
2018-07-13T22:03:47.946Z,21.15
2018-07-13T22:06:00.393Z,21.16
2018-07-13T22:08:12.742Z,21.03
2018-07-13T22:10:25.208Z,20.87
2018-07-13T22:12:37.650Z,20.80
2018-07-13T22:14:50.104Z,20.72
2018-07-13T22:17:02.578Z,20.70
2018-07-13T22:19:15.145Z,20.66
2018-07-13T22:21:27.706Z,20.63
2018-07-13T22:23:40.051Z,20.66
2018-07-13T22:25:52.483Z,20.67
2018-07-13T22:28:05.090Z,20.68
2018-07-13T22:30:17.493Z,20.63
2018-07-13T22:32:29.935Z,20.61
2018-07-13T22:34:42.301Z,20.59
2018-07-13T22:36:54.691Z,20.53
2018-07-13T22:39:07.302Z,20.47
2018-07-13T22:41:19.731Z,20.39
2018-07-13T22:43:32.156Z,20.24
2018-07-13T22:45:44.684Z,20.05
2018-07-13T22:47:57.082Z,19.91
2018-07-13T22:50:09.566Z,19.82
2018-07-13T22:52:22.002Z,19.81
2018-07-13T22:54:34.387Z,19.88
2018-07-13T22:56:46.831Z,19.90
2018-07-13T22:58:59.212Z,19.88
2018-07-13T23:01:11.627Z,19.92
2018-07-13T23:03:24.041Z,19.86
2018-07-13T23:05:36.436Z,19.88
2018-07-13T23:07:48.839Z,19.91
2018-07-13T23:10:01.316Z,19.89
2018-07-13T23:12:13.713Z,19.87
2018-07-13T23:14:26.154Z,19.89
2018-07-13T23:16:38.519Z,19.90
2018-07-13T23:18:50.983Z,19.89
2018-07-13T23:21:03.503Z,19.87
2018-07-13T23:23:15.898Z,19.79
2018-07-13T23:25:28.292Z,19.72
2018-07-13T23:27:40.646Z,19.63
2018-07-13T23:29:53.050Z,19.57
2018-07-13T23:32:05.579Z,19.53
2018-07-13T23:34:17.985Z,19.50
2018-07-13T23:36:30.314Z,19.45
2018-07-13T23:38:42.735Z,19.37
2018-07-13T23:40:55.210Z,19.33
2018-07-13T23:43:07.632Z,19.37
2018-07-13T23:45:20.030Z,19.40
2018-07-13T23:47:32.505Z,19.38
2018-07-13T23:49:44.902Z,19.32
2018-07-13T23:51:57.539Z,19.27
2018-07-13T23:54:09.959Z,19.13
2018-07-13T23:56:22.484Z,19.06
2018-07-13T23:58:35.149Z,19.07
